createdAt,value
2018-12-15T00:00:22.370Z,2.23
2018-12-15T00:01:22.335Z,2.09
2018-12-15T00:02:22.569Z,2.23
2018-12-15T00:03:22.573Z,2.19
2018-12-15T00:04:22.282Z,2.16
2018-12-15T00:05:22.249Z,2.09
2018-12-15T00:06:22.224Z,2.15
2018-12-15T00:07:22.476Z,2.13
2018-12-15T00:08:22.182Z,2.09
2018-12-15T00:09:22.156Z,2.17
2018-12-15T00:10:22.380Z,2.13
2018-12-15T00:11:22.120Z,2.13
2018-12-15T00:12:22.083Z,2.09
2018-12-15T00:13:22.064Z,2.17
2018-12-15T00:14:22.040Z,2.16
2018-12-15T00:15:22.065Z,2.08
2018-12-15T00:16:21.994Z,2.12
2018-12-15T00:17:21.723Z,2.16
2018-12-15T00:18:21.953Z,2.12
2018-12-15T00:19:22.190Z,2.1
2018-12-15T00:20:22.172Z,2.12
2018-12-15T00:21:21.888Z,2.13
2018-12-15T00:22:22.110Z,2.16
2018-12-15T00:23:21.582Z,2.16
2018-12-15T00:24:22.068Z,2.1
2018-12-15T00:25:21.795Z,2.09
2018-12-15T00:26:22.027Z,2.2
2018-12-15T00:27:21.744Z,2.13
2018-12-15T00:28:21.980Z,2.15
2018-12-15T00:29:21.447Z,2.13
2018-12-15T00:30:22.080Z,2.16
2018-12-15T00:31:21.400Z,2.13
2018-12-15T00:32:21.883Z,2.12
2018-12-15T00:33:21.876Z,2.16
2018-12-15T00:34:21.592Z,2.16
2018-12-15T00:35:21.816Z,2.08
2018-12-15T00:36:21.541Z,2.12
2018-12-15T00:37:21.770Z,2.09
2018-12-15T00:38:21.497Z,2.12
2018-12-15T00:39:21.729Z,2.19
2018-12-15T00:40:21.191Z,2.04
2018-12-15T00:41:21.679Z,2.06
2018-12-15T00:42:21.154Z,2.08
2018-12-15T00:43:21.639Z,2.08
2018-12-15T00:44:21.114Z,2.06
2018-12-15T00:45:21.335Z,2.02
2018-12-15T00:46:21.306Z,2.02
2018-12-15T00:47:21.287Z,2.06
2018-12-15T00:48:21.266Z,2.02
2018-12-15T00:49:21.240Z,2.06
2018-12-15T00:50:21.223Z,2.06
2018-12-15T00:51:21.199Z,2.08
2018-12-15T00:52:20.927Z,2.01
2018-12-15T00:53:21.179Z,2.02
2018-12-15T00:54:21.147Z,2.06
2018-12-15T00:55:21.324Z,2.04
2018-12-15T00:56:21.347Z,2.09
2018-12-15T00:57:21.064Z,2.08
2018-12-15T00:58:21.039Z,2.08
2018-12-15T00:59:21.012Z,2.1
2018-12-15T01:00:21.241Z,2.04
2018-12-15T01:01:21.227Z,2.08
2018-12-15T01:02:21.206Z,2.13
2018-12-15T01:03:21.002Z,2.01
2018-12-15T01:04:21.152Z,2.02
2018-12-15T01:05:20.876Z,2.04
2018-12-15T01:06:20.609Z,2.06
2018-12-15T01:07:20.843Z,2.08
2018-12-15T01:08:20.814Z,2.04
2018-12-15T01:09:21.043Z,2.06
2018-12-15T01:10:20.764Z,2.06
2018-12-15T01:11:20.739Z,2.1
2018-12-15T01:12:20.985Z,2.01
2018-12-15T01:13:20.436Z,2.02
2018-12-15T01:14:20.931Z,2.08
2018-12-15T01:15:20.652Z,2.02
2018-12-15T01:16:20.627Z,2.12
2018-12-15T01:17:25.194Z,2.06
2018-12-15T01:18:20.326Z,2.06
2018-12-15T01:19:20.565Z,2.1
2018-12-15T01:20:20.533Z,2.12
2018-12-15T01:21:20.770Z,2.04
2018-12-15T01:22:20.748Z,2.08
2018-12-15T01:23:20.721Z,2.1
2018-12-15T01:24:20.700Z,2.1
2018-12-15T01:25:20.672Z,2.17
2018-12-15T01:26:20.655Z,2.1
2018-12-15T01:27:20.381Z,2.15
2018-12-15T01:28:20.350Z,2.2
2018-12-15T01:29:20.581Z,2.1
2018-12-15T01:30:20.305Z,2.12
2018-12-15T01:31:20.284Z,2.23
2018-12-15T01:32:20.346Z,2.22
2018-12-15T01:33:20.237Z,2.26
2018-12-15T01:34:20.471Z,2.17
2018-12-15T01:35:20.445Z,2.19
2018-12-15T01:36:20.424Z,2.17
2018-12-15T01:37:19.892Z,2.15
2018-12-15T01:38:19.872Z,2.19
2018-12-15T01:39:20.099Z,2.16
2018-12-15T01:40:20.537Z,2.22
2018-12-15T01:41:20.124Z,2.1
2018-12-15T01:42:20.286Z,2.13
2018-12-15T01:43:20.265Z,2.15
2018-12-15T01:44:20.237Z,2.12
2018-12-15T01:45:19.970Z,2.09
2018-12-15T01:46:20.296Z,2.12
2018-12-15T01:47:19.936Z,2.09
2018-12-15T01:48:19.929Z,2.17
2018-12-15T01:49:19.887Z,2.12
2018-12-15T01:50:20.107Z,2.12
2018-12-15T01:51:20.086Z,2.12
2018-12-15T01:52:19.554Z,2.17
2018-12-15T01:53:19.528Z,2.15
2018-12-15T01:54:19.753Z,2.09
2018-12-15T01:55:19.726Z,2.15
2018-12-15T01:56:19.713Z,2.23
2018-12-15T01:57:19.944Z,2.22
2018-12-15T01:58:19.918Z,2.19
2018-12-15T01:59:19.657Z,2.27
2018-12-15T02:00:19.887Z,2.22
2018-12-15T02:01:19.871Z,2.22
2018-12-15T02:02:19.570Z,2.1
2018-12-15T02:03:19.811Z,2.17
2018-12-15T02:04:19.782Z,2.19
2018-12-15T02:05:19.252Z,2.16
2018-12-15T02:06:19.750Z,2.17
2018-12-15T02:07:19.713Z,2.16
2018-12-15T02:08:19.690Z,2.12
2018-12-15T02:09:19.667Z,2.2
2018-12-15T02:10:19.643Z,2.09
2018-12-15T02:11:19.614Z,2.16
2018-12-15T02:12:19.586Z,2.19
2018-12-15T02:13:19.319Z,2.13
2018-12-15T02:14:19.297Z,2.16
2018-12-15T02:15:19.325Z,2.22
2018-12-15T02:16:19.255Z,2.19
2018-12-15T02:17:19.477Z,2.17
2018-12-15T02:18:19.461Z,2.13
2018-12-15T02:19:19.432Z,2.15
2018-12-15T02:20:19.154Z,2.19
2018-12-15T02:21:18.888Z,2.17
2018-12-15T02:22:19.109Z,2.17
2018-12-15T02:23:18.830Z,2.22
2018-12-15T02:24:19.315Z,2.19
2018-12-15T02:25:18.791Z,2.27
2018-12-15T02:26:18.772Z,2.2
2018-12-15T02:27:19.311Z,2.2
2018-12-15T02:28:19.036Z,2.31
2018-12-15T02:29:18.954Z,2.23
2018-12-15T02:30:19.188Z,2.22
2018-12-15T02:31:19.163Z,2.3
2018-12-15T02:32:18.634Z,2.33
2018-12-15T02:33:18.622Z,2.33
2018-12-15T02:34:19.095Z,2.3
2018-12-15T02:35:18.813Z,2.33
2018-12-15T02:36:19.050Z,2.3
2018-12-15T02:37:19.023Z,2.26
2018-12-15T02:38:18.492Z,2.35
2018-12-15T02:39:18.718Z,2.3
2018-12-15T02:40:18.713Z,2.33
2018-12-15T02:41:19.879Z,2.3
2018-12-15T02:42:18.644Z,2.17
2018-12-15T02:43:18.631Z,2.15
2018-12-15T02:44:18.608Z,2.17
2018-12-15T02:45:18.835Z,2.19
2018-12-15T02:46:18.556Z,2.17
2018-12-15T02:47:18.538Z,2.17
2018-12-15T02:48:18.769Z,2.22
2018-12-15T02:49:18.757Z,2.09
2018-12-15T02:50:18.736Z,2.2
2018-12-15T02:51:18.442Z,2.16
2018-12-15T02:52:18.680Z,2.13
2018-12-15T02:53:18.399Z,2.12
2018-12-15T02:54:18.623Z,2.16
2018-12-15T02:55:18.607Z,2.1
2018-12-15T02:56:18.582Z,2.1
2018-12-15T02:57:18.613Z,2.06
2018-12-15T02:58:18.543Z,2.09
2018-12-15T02:59:18.512Z,2.13
2018-12-15T03:00:17.991Z,2.09
2018-12-15T03:01:18.216Z,2.12
2018-12-15T03:02:18.449Z,2.06
2018-12-15T03:03:18.164Z,2.13
2018-12-15T03:04:18.158Z,2.12
2018-12-15T03:05:18.402Z,2.17
2018-12-15T03:06:18.361Z,2.15
2018-12-15T03:07:18.084Z,2.1
2018-12-15T03:08:17.800Z,2.1
2018-12-15T03:09:18.276Z,2.09
2018-12-15T03:10:18.005Z,2.17
2018-12-15T03:11:17.985Z,2.09
2018-12-15T03:12:18.377Z,2.19
2018-12-15T03:13:18.194Z,2.15
2018-12-15T03:14:17.912Z,2.13
2018-12-15T03:15:17.894Z,2.22
2018-12-15T03:16:18.125Z,2.09
2018-12-15T03:17:17.844Z,2.15
2018-12-15T03:18:17.835Z,2.09
2018-12-15T03:19:17.798Z,2.1
2018-12-15T03:20:17.775Z,2.1
2018-12-15T03:21:17.758Z,2.13
2018-12-15T03:22:17.724Z,2.2
2018-12-15T03:23:17.455Z,2.2
2018-12-15T03:24:17.941Z,2.15
2018-12-15T03:25:17.665Z,2.12
2018-12-15T03:26:17.640Z,2.16
2018-12-15T03:27:17.871Z,2.15
2018-12-15T03:28:17.605Z,2.17
2018-12-15T03:29:17.571Z,2.09
2018-12-15T03:30:17.580Z,2.09
2018-12-15T03:31:17.794Z,2.09
2018-12-15T03:32:17.836Z,2.06
2018-12-15T03:33:17.245Z,2.13
2018-12-15T03:34:17.458Z,2.16
2018-12-15T03:35:17.704Z,2.13
2018-12-15T03:36:17.157Z,2.13
2018-12-15T03:37:17.398Z,2.12
2018-12-15T03:38:17.624Z,2.17
2018-12-15T03:39:17.353Z,2.1
2018-12-15T03:40:17.320Z,2.13
2018-12-15T03:41:17.502Z,2.09
2018-12-15T03:42:17.530Z,2.09
2018-12-15T03:43:17.274Z,2.15
2018-12-15T03:44:17.286Z,2.15
2018-12-15T03:45:17.203Z,2.15
2018-12-15T03:46:17.436Z,2.13
2018-12-15T03:47:17.416Z,2.12
2018-12-15T03:48:16.896Z,2.13
2018-12-15T03:49:17.122Z,2.12
2018-12-15T03:50:17.107Z,2.08
2018-12-15T03:51:16.814Z,2.12
2018-12-15T03:52:17.310Z,2.09
2018-12-15T03:53:17.027Z,2.1
2018-12-15T03:54:16.758Z,2.1
2018-12-15T03:55:17.229Z,2.13
2018-12-15T03:56:16.705Z,2.15
2018-12-15T03:57:16.678Z,2.16
2018-12-15T03:58:17.172Z,2.12
2018-12-15T03:59:16.905Z,2.09
2018-12-15T04:00:17.122Z,2.09
2018-12-15T04:01:17.094Z,2.08
2018-12-15T04:02:16.836Z,2.08
2018-12-15T04:03:16.797Z,2.12
2018-12-15T04:04:16.530Z,2.17
2018-12-15T04:05:16.771Z,2.12
2018-12-15T04:06:16.986Z,2.12
2018-12-15T04:07:16.703Z,2.08
2018-12-15T04:08:16.685Z,2.04
2018-12-15T04:09:16.658Z,2.1
2018-12-15T04:10:16.889Z,2.12
2018-12-15T04:11:16.884Z,2.1
2018-12-15T04:12:16.848Z,2.02
2018-12-15T04:13:16.594Z,2.06
2018-12-15T04:14:16.879Z,2.04
2018-12-15T04:15:16.938Z,2.1
2018-12-15T04:16:16.850Z,2.09
2018-12-15T04:17:16.783Z,2.09
2018-12-15T04:18:16.527Z,2.15
2018-12-15T04:19:17.185Z,2.15
2018-12-15T04:20:16.849Z,2.06
2018-12-15T04:21:16.150Z,2.08
2018-12-15T04:22:16.697Z,2.12
2018-12-15T04:23:16.589Z,2.12
2018-12-15T04:24:16.324Z,2.15
2018-12-15T04:25:16.558Z,2.19
2018-12-15T04:26:16.554Z,2.1
2018-12-15T04:27:16.519Z,2.16
2018-12-15T04:28:16.273Z,2.15
2018-12-15T04:29:16.467Z,2.19
2018-12-15T04:30:15.949Z,2.1
2018-12-15T04:31:16.155Z,2.12
2018-12-15T04:32:16.398Z,2.1
2018-12-15T04:33:16.468Z,2.12
2018-12-15T04:34:16.341Z,2.1
2018-12-15T04:35:16.093Z,2.17
2018-12-15T04:36:16.496Z,2.12
2018-12-15T04:37:16.165Z,2.13
2018-12-15T04:38:30.696Z,2.16
2018-12-15T04:39:16.417Z,2.19
2018-12-15T04:40:16.386Z,2.09
2018-12-15T04:41:15.929Z,2.16
2018-12-15T04:42:16.659Z,2.17
2018-12-15T04:43:15.887Z,2.16
2018-12-15T04:44:16.146Z,2.16
2018-12-15T04:45:16.547Z,2.17
2018-12-15T04:46:15.822Z,2.17
2018-12-15T04:47:16.066Z,2.06
2018-12-15T04:48:16.142Z,2.15
2018-12-15T04:49:15.554Z,2.15
2018-12-15T04:50:15.728Z,2.1
2018-12-15T04:51:15.706Z,2.15
2018-12-15T04:52:15.687Z,2.12
2018-12-15T04:53:15.912Z,2.15
2018-12-15T04:54:15.670Z,2.09
2018-12-15T04:55:15.744Z,2.15
2018-12-15T04:56:15.827Z,2.16
2018-12-15T04:57:15.892Z,2.15
2018-12-15T04:58:15.764Z,2.12
2018-12-15T04:59:16.032Z,2.08
2018-12-15T05:00:15.621Z,2.13
2018-12-15T05:01:15.940Z,2.12
2018-12-15T05:02:15.953Z,2.12
2018-12-15T05:03:15.425Z,2.16
2018-12-15T05:04:15.153Z,2.06
2018-12-15T05:05:15.385Z,2.02
2018-12-15T05:06:15.619Z,2.09
2018-12-15T05:07:15.604Z,2.04
2018-12-15T05:08:15.065Z,2.04
2018-12-15T05:09:15.301Z,2.08
2018-12-15T05:10:15.513Z,2.04
2018-12-15T05:11:15.292Z,2.08
2018-12-15T05:12:15.222Z,2.08
2018-12-15T05:13:15.470Z,2.06
2018-12-15T05:14:15.216Z,2.09
2018-12-15T05:15:15.407Z,2.15
2018-12-15T05:16:15.139Z,2.16
2018-12-15T05:17:15.359Z,2.02
2018-12-15T05:18:20.631Z,2.02
2018-12-15T05:19:15.083Z,2.02
2018-12-15T05:20:15.295Z,2.12
2018-12-15T05:21:15.025Z,2.01
2018-12-15T05:22:14.997Z,2.13
2018-12-15T05:23:14.966Z,2.09
2018-12-15T05:24:14.954Z,2.01
2018-12-15T05:25:14.925Z,2.12
2018-12-15T05:26:14.898Z,2.02
2018-12-15T05:27:14.897Z,1.99
2018-12-15T05:28:14.872Z,2.02
2018-12-15T05:29:14.832Z,2.02
2018-12-15T05:30:15.061Z,2.08
2018-12-15T05:31:14.540Z,2.01
2018-12-15T05:32:14.770Z,2.04
2018-12-15T05:33:14.994Z,2.08
2018-12-15T05:34:14.716Z,1.99
2018-12-15T05:35:14.441Z,2.01
2018-12-15T05:36:14.670Z,2.01
2018-12-15T05:37:14.660Z,1.99
2018-12-15T05:38:14.619Z,1.97
2018-12-15T05:39:14.351Z,1.98
2018-12-15T05:40:14.835Z,1.93
2018-12-15T05:41:14.758Z,2.01
2018-12-15T05:42:14.535Z,1.94
2018-12-15T05:43:14.767Z,1.97
2018-12-15T05:44:14.493Z,1.94
2018-12-15T05:45:14.725Z,2.01
2018-12-15T05:46:14.454Z,2.08
2018-12-15T05:47:14.205Z,1.97
2018-12-15T05:48:14.663Z,2.08
2018-12-15T05:49:14.681Z,1.99
2018-12-15T05:50:14.347Z,2.08
2018-12-15T05:51:14.581Z,2.12
2018-12-15T05:52:14.575Z,2.02
2018-12-15T05:53:14.296Z,2.02
2018-12-15T05:54:14.262Z,2.12
2018-12-15T05:55:14.237Z,2.09
2018-12-15T05:56:13.963Z,2.16
2018-12-15T05:57:14.190Z,2.13
2018-12-15T05:58:14.171Z,2.1
2018-12-15T05:59:13.921Z,2.13
2018-12-15T06:00:14.131Z,2.13
2018-12-15T06:01:14.106Z,2.09
2018-12-15T06:02:14.338Z,2.12
2018-12-15T06:03:14.051Z,2.16
2018-12-15T06:04:14.326Z,2.16
2018-12-15T06:05:14.009Z,2.16
2018-12-15T06:06:14.242Z,2.2
2018-12-15T06:07:14.219Z,2.2
2018-12-15T06:08:14.209Z,2.09
2018-12-15T06:09:14.179Z,2.1
2018-12-15T06:10:13.638Z,2.19
2018-12-15T06:11:13.869Z,2.17
2018-12-15T06:12:13.853Z,2.16
2018-12-15T06:13:14.080Z,2.19
2018-12-15T06:14:14.067Z,2.16
2018-12-15T06:15:13.839Z,2.26
2018-12-15T06:16:13.795Z,2.27
2018-12-15T06:17:13.732Z,2.17
2018-12-15T06:18:13.709Z,2.27
2018-12-15T06:19:13.690Z,2.26
2018-12-15T06:20:13.919Z,2.15
2018-12-15T06:21:13.391Z,2.33
2018-12-15T06:22:13.874Z,2.34
2018-12-15T06:23:13.593Z,2.33
2018-12-15T06:24:13.844Z,2.28
2018-12-15T06:25:13.555Z,2.26
2018-12-15T06:26:13.267Z,2.27
2018-12-15T06:27:13.505Z,2.31
2018-12-15T06:28:13.483Z,2.27
2018-12-15T06:29:13.549Z,2.27
2018-12-15T06:30:13.456Z,2.15
2018-12-15T06:31:13.414Z,2.13
2018-12-15T06:32:13.397Z,2.16
2018-12-15T06:33:13.363Z,2.22
2018-12-15T06:34:13.086Z,2.17
2018-12-15T06:35:13.071Z,2.2
2018-12-15T06:36:13.545Z,2.19
2018-12-15T06:37:13.274Z,2.2
2018-12-15T06:38:13.246Z,2.19
2018-12-15T06:39:13.221Z,2.12
2018-12-15T06:40:13.199Z,2.09
2018-12-15T06:41:13.435Z,2.09
2018-12-15T06:42:13.468Z,2.1
2018-12-15T06:43:13.390Z,2.17
2018-12-15T06:44:13.110Z,2.15
2018-12-15T06:45:13.090Z,2.09
2018-12-15T06:46:13.383Z,2.16
2018-12-15T06:47:13.041Z,2.16
2018-12-15T06:48:13.279Z,2.1
2018-12-15T06:49:13.253Z,2.16
2018-12-15T06:50:13.224Z,2.12
2018-12-15T06:51:12.956Z,2.16
2018-12-15T06:52:12.932Z,2.17
2018-12-15T06:53:13.159Z,2.16
2018-12-15T06:54:13.131Z,2.15
2018-12-15T06:55:12.859Z,2.15
2018-12-15T06:56:13.095Z,2.17
2018-12-15T06:57:13.097Z,2.1
2018-12-15T06:58:12.785Z,2.09
2018-12-15T06:59:12.781Z,2.13
2018-12-15T07:00:12.739Z,2.19
2018-12-15T07:01:13.028Z,2.08
2018-12-15T07:02:12.706Z,2.16
2018-12-15T07:03:12.673Z,2.16
2018-12-15T07:04:12.400Z,2.13
2018-12-15T07:05:12.369Z,2.08
2018-12-15T07:06:12.451Z,2.12
2018-12-15T07:07:12.583Z,2.13
2018-12-15T07:08:12.302Z,2.23
2018-12-15T07:09:12.532Z,2.12
2018-12-15T07:10:12.765Z,2.26
2018-12-15T07:11:12.737Z,2.2
2018-12-15T07:12:12.464Z,2.19
2018-12-15T07:13:12.698Z,2.28
2018-12-15T07:14:12.423Z,2.17
2018-12-15T07:15:12.403Z,2.16
2018-12-15T07:16:12.382Z,2.16
2018-12-15T07:17:12.099Z,2.19
2018-12-15T07:18:12.337Z,2.17
2018-12-15T07:19:12.302Z,2.16
2018-12-15T07:20:12.541Z,2.2
2018-12-15T07:21:12.308Z,2.15
2018-12-15T07:22:12.249Z,2.19
2018-12-15T07:23:12.223Z,2.19
2018-12-15T07:24:12.451Z,2.17
2018-12-15T07:25:12.180Z,2.12
2018-12-15T07:26:12.147Z,2.09
2018-12-15T07:27:12.123Z,2.09
2018-12-15T07:28:12.117Z,2.12
2018-12-15T07:29:12.331Z,2.09
2018-12-15T07:30:12.312Z,2.17
2018-12-15T07:31:12.385Z,2.09
2018-12-15T07:32:12.044Z,2.09
2018-12-15T07:33:12.466Z,2.15
2018-12-15T07:34:12.420Z,2.1
2018-12-15T07:35:11.938Z,2.22
2018-12-15T07:36:12.122Z,2.16
2018-12-15T07:37:11.901Z,2.15
2018-12-15T07:38:11.865Z,2.13
2018-12-15T07:39:11.849Z,2.15
2018-12-15T07:40:11.569Z,2.08
2018-12-15T07:41:12.255Z,2.12
2018-12-15T07:42:11.786Z,2.12
2018-12-15T07:43:11.758Z,2.1
2018-12-15T07:44:11.811Z,2.1
2018-12-15T07:45:11.709Z,2.17
2018-12-15T07:46:11.696Z,2.13
2018-12-15T07:47:11.917Z,2.17
2018-12-15T07:48:11.905Z,2.1
2018-12-15T07:49:11.892Z,2.1
2018-12-15T07:50:11.851Z,2.13
2018-12-15T07:51:11.915Z,2.16
2018-12-15T07:52:11.562Z,2.16
2018-12-15T07:53:11.794Z,2.13
2018-12-15T07:54:11.759Z,2.17
2018-12-15T07:55:11.484Z,2.12
2018-12-15T07:56:11.718Z,2.15
2018-12-15T07:57:11.441Z,2.08
2018-12-15T07:58:11.665Z,2.15
2018-12-15T07:59:11.385Z,2.15
2018-12-15T08:00:11.111Z,2.13
2018-12-15T08:01:11.607Z,2.09
2018-12-15T08:02:11.383Z,2.12
2018-12-15T08:03:11.308Z,2.2
2018-12-15T08:04:11.535Z,2.12
2018-12-15T08:05:11.507Z,2.15
2018-12-15T08:06:11.482Z,2.12
2018-12-15T08:07:11.456Z,2.09
2018-12-15T08:08:11.435Z,2.17
2018-12-15T08:09:11.160Z,2.19
2018-12-15T08:10:11.396Z,2.12
2018-12-15T08:11:11.110Z,2.19
2018-12-15T08:12:11.346Z,2.13
2018-12-15T08:13:11.322Z,2.16
2018-12-15T08:14:10.790Z,2.16
2018-12-15T08:15:11.361Z,2.17
2018-12-15T08:16:11.248Z,2.16
2018-12-15T08:17:11.228Z,2.15
2018-12-15T08:18:11.206Z,2.13
2018-12-15T08:19:11.192Z,2.12
2018-12-15T08:20:10.902Z,2.15
2018-12-15T08:21:11.142Z,2.17
2018-12-15T08:22:10.868Z,2.19
2018-12-15T08:23:10.938Z,2.16
2018-12-15T08:24:11.137Z,2.2
2018-12-15T08:25:11.046Z,2.16
2018-12-15T08:26:10.774Z,2.2
2018-12-15T08:27:10.749Z,2.16
2018-12-15T08:28:10.478Z,2.23
2018-12-15T08:29:10.708Z,2.2
2018-12-15T08:30:11.003Z,2.22
2018-12-15T08:31:10.912Z,2.19
2018-12-15T08:32:10.885Z,2.27
2018-12-15T08:33:10.624Z,2.16
2018-12-15T08:34:10.957Z,2.19
2018-12-15T08:35:10.568Z,2.22
2018-12-15T08:36:10.799Z,2.22
2018-12-15T08:37:10.510Z,2.19
2018-12-15T08:38:10.749Z,2.19
2018-12-15T08:39:10.721Z,2.22
2018-12-15T08:40:10.700Z,2.16
2018-12-15T08:41:10.682Z,2.15
2018-12-15T08:42:10.399Z,2.15
2018-12-15T08:43:10.630Z,2.2
2018-12-15T08:44:10.374Z,2.3
2018-12-15T08:45:10.333Z,2.27
2018-12-15T08:46:10.354Z,2.27
2018-12-15T08:47:10.286Z,2.22
2018-12-15T08:48:10.008Z,2.27
2018-12-15T08:49:10.261Z,2.31
2018-12-15T08:50:10.473Z,2.2
2018-12-15T08:51:10.198Z,2.3
2018-12-15T08:52:09.922Z,2.3
2018-12-15T08:53:10.412Z,2.28
2018-12-15T08:54:10.380Z,2.31
2018-12-15T08:55:09.901Z,2.28
2018-12-15T08:56:09.824Z,2.27
2018-12-15T08:57:10.057Z,2.3
2018-12-15T08:58:10.036Z,2.28
2018-12-15T08:59:10.010Z,2.3
2018-12-15T09:00:09.726Z,2.26
2018-12-15T09:01:09.959Z,2.3
2018-12-15T09:02:09.686Z,2.27
2018-12-15T09:03:09.659Z,2.27
2018-12-15T09:04:09.894Z,2.16
2018-12-15T09:05:09.873Z,2.33
2018-12-15T09:06:09.848Z,2.3
2018-12-15T09:07:09.825Z,2.34
2018-12-15T09:08:09.560Z,2.3
2018-12-15T09:09:09.527Z,2.35
2018-12-15T09:10:10.005Z,2.27
2018-12-15T09:11:09.989Z,2.28
2018-12-15T09:12:09.964Z,2.31
2018-12-15T09:13:09.961Z,2.3
2018-12-15T09:14:09.932Z,2.23
2018-12-15T09:15:09.898Z,2.31
2018-12-15T09:16:09.367Z,2.26
2018-12-15T09:17:09.590Z,2.33
2018-12-15T09:18:09.829Z,2.28
2018-12-15T09:19:15.744Z,2.34
2018-12-15T09:20:09.799Z,2.33
2018-12-15T09:21:09.506Z,2.3
2018-12-15T09:22:16.262Z,2.3
2018-12-15T09:23:09.801Z,2.33
2018-12-15T09:24:09.543Z,2.26
2018-12-15T09:25:09.412Z,2.3
2018-12-15T09:26:09.644Z,2.33
2018-12-15T09:27:09.735Z,2.3
2018-12-15T09:28:09.400Z,2.31
2018-12-15T09:29:09.327Z,2.22
2018-12-15T09:30:09.316Z,2.33
2018-12-15T09:31:09.278Z,2.23
2018-12-15T09:32:09.503Z,2.31
2018-12-15T09:33:09.485Z,2.35
2018-12-15T09:34:09.460Z,2.35
2018-12-15T09:35:09.181Z,2.27
2018-12-15T09:36:09.163Z,2.3
2018-12-15T09:37:09.429Z,2.3
2018-12-15T09:38:09.364Z,2.28
2018-12-15T09:39:09.092Z,2.28
2018-12-15T09:40:09.070Z,2.3
2018-12-15T09:41:08.992Z,2.3
2018-12-15T09:42:09.030Z,2.28
2018-12-15T09:43:08.988Z,2.33
2018-12-15T09:44:09.715Z,2.27
2018-12-15T09:45:09.202Z,2.27
2018-12-15T09:46:08.671Z,2.28
2018-12-15T09:47:09.152Z,2.28
2018-12-15T09:48:08.978Z,2.31
2018-12-15T09:49:09.118Z,2.3
2018-12-15T09:50:08.843Z,2.3
2018-12-15T09:51:09.088Z,2.3
2018-12-15T09:52:09.042Z,2.28
2018-12-15T09:53:08.758Z,2.37
2018-12-15T09:54:09.004Z,2.26
2018-12-15T09:55:08.726Z,2.33
2018-12-15T09:56:08.715Z,2.31
2018-12-15T09:57:08.674Z,2.3
2018-12-15T09:58:08.906Z,2.31
2018-12-15T09:59:08.881Z,2.33
2018-12-15T10:00:08.855Z,2.31
2018-12-15T10:01:08.840Z,2.37
2018-12-15T10:02:08.811Z,2.31
2018-12-15T10:03:08.538Z,2.27
2018-12-15T10:04:08.779Z,2.35
2018-12-15T10:05:08.485Z,2.34
2018-12-15T10:06:08.469Z,2.33
2018-12-15T10:07:08.448Z,2.26
2018-12-15T10:08:08.229Z,2.3
2018-12-15T10:09:08.406Z,2.35
2018-12-15T10:10:08.384Z,2.28
2018-12-15T10:11:08.354Z,2.15
2018-12-15T10:12:08.347Z,2.26
2018-12-15T10:13:08.321Z,2.19
2018-12-15T10:14:08.547Z,2.26
2018-12-15T10:15:08.257Z,2.26
2018-12-15T10:16:08.505Z,2.27
2018-12-15T10:17:08.951Z,2.16
2018-12-15T10:18:08.436Z,2.2
2018-12-15T10:19:08.160Z,2.3
2018-12-15T10:20:08.141Z,2.27
2018-12-15T10:21:08.367Z,2.26
2018-12-15T10:22:08.349Z,2.26
2018-12-15T10:23:08.865Z,2.3
2018-12-15T10:24:08.319Z,2.27
2018-12-15T10:25:08.316Z,2.22
2018-12-15T10:26:08.288Z,2.23
2018-12-15T10:27:07.990Z,2.3
2018-12-15T10:28:07.963Z,2.27
2018-12-15T10:29:07.936Z,2.28
2018-12-15T10:30:07.654Z,2.26
2018-12-15T10:31:08.246Z,2.2
2018-12-15T10:32:07.871Z,2.13
2018-12-15T10:33:07.842Z,2.26
2018-12-15T10:34:08.070Z,2.19
2018-12-15T10:35:07.831Z,2.27
2018-12-15T10:36:07.517Z,2.17
2018-12-15T10:37:09.323Z,2.19
2018-12-15T10:38:07.741Z,2.22
2018-12-15T10:39:07.751Z,2.13
2018-12-15T10:40:07.424Z,2.27
2018-12-15T10:41:07.943Z,2.26
2018-12-15T10:42:07.384Z,2.2
2018-12-15T10:43:07.904Z,2.27
2018-12-15T10:44:07.890Z,2.3
2018-12-15T10:45:07.823Z,2.27
2018-12-15T10:46:07.543Z,2.33
2018-12-15T10:47:07.524Z,2.3
2018-12-15T10:48:07.758Z,2.33
2018-12-15T10:49:07.219Z,2.23
2018-12-15T10:50:07.210Z,2.3
2018-12-15T10:51:07.701Z,2.33
2018-12-15T10:52:07.674Z,2.34
2018-12-15T10:53:07.390Z,2.3
2018-12-15T10:54:07.618Z,2.28
2018-12-15T10:55:07.350Z,2.3
2018-12-15T10:56:07.588Z,2.3
2018-12-15T10:57:07.542Z,2.33
2018-12-15T10:58:07.524Z,2.3
2018-12-15T10:59:07.344Z,2.34
2018-12-15T11:00:07.221Z,2.33
2018-12-15T11:01:07.215Z,2.3
2018-12-15T11:02:07.378Z,2.31
2018-12-15T11:03:06.895Z,2.23
2018-12-15T11:04:07.181Z,2.3
2018-12-15T11:05:07.111Z,2.35
2018-12-15T11:06:07.098Z,2.3
2018-12-15T11:07:07.344Z,2.33
2018-12-15T11:08:07.285Z,2.35
2018-12-15T11:09:07.014Z,2.33
2018-12-15T11:10:07.255Z,2.31
2018-12-15T11:11:06.969Z,2.33
2018-12-15T11:12:06.704Z,2.27
2018-12-15T11:13:06.931Z,2.35
2018-12-15T11:14:07.170Z,2.38
2018-12-15T11:15:06.885Z,2.34
2018-12-15T11:16:06.854Z,2.34
2018-12-15T11:17:07.088Z,2.3
2018-12-15T11:18:06.812Z,2.33
2018-12-15T11:19:06.782Z,2.3
2018-12-15T11:20:07.086Z,2.31
2018-12-15T11:21:07.002Z,2.31
2018-12-15T11:22:06.979Z,2.31
2018-12-15T11:23:06.706Z,2.34
2018-12-15T11:24:06.671Z,2.33
2018-12-15T11:25:06.645Z,2.3
2018-12-15T11:26:06.879Z,2.26
2018-12-15T11:27:06.859Z,2.27
2018-12-15T11:28:06.584Z,2.27
2018-12-15T11:29:06.562Z,2.31
2018-12-15T11:30:06.794Z,2.37
2018-12-15T11:31:06.781Z,2.3
2018-12-15T11:32:06.492Z,2.27
2018-12-15T11:33:06.469Z,2.27
2018-12-15T11:34:06.706Z,2.4
2018-12-15T11:35:06.688Z,2.35
2018-12-15T11:36:06.147Z,2.38
2018-12-15T11:37:06.631Z,2.34
2018-12-15T11:38:06.363Z,2.33
2018-12-15T11:39:06.373Z,2.27
2018-12-15T11:40:06.319Z,2.33
2018-12-15T11:41:06.323Z,2.33
2018-12-15T11:42:06.517Z,2.28
2018-12-15T11:43:06.488Z,2.37
2018-12-15T11:44:06.508Z,2.22
2018-12-15T11:45:06.303Z,2.28
2018-12-15T11:46:06.172Z,2.37
2018-12-15T11:47:06.407Z,2.33
2018-12-15T11:48:06.131Z,2.34
2018-12-15T11:49:06.349Z,2.3
2018-12-15T11:50:06.083Z,2.33
2018-12-15T11:51:06.314Z,2.33
2018-12-15T11:52:06.035Z,2.27
2018-12-15T11:53:06.107Z,2.28
2018-12-15T11:54:05.990Z,2.34
2018-12-15T11:55:06.230Z,2.35
2018-12-15T11:56:06.193Z,2.28
2018-12-15T11:57:06.175Z,2.33
2018-12-15T11:58:06.168Z,2.35
2018-12-15T11:59:05.616Z,2.33
2018-12-15T12:00:05.655Z,2.34
2018-12-15T12:01:05.829Z,2.27
2018-12-15T12:02:06.080Z,2.33
2018-12-15T12:03:06.042Z,2.34
2018-12-15T12:04:06.039Z,2.35
2018-12-15T12:05:05.894Z,2.31
2018-12-15T12:06:05.758Z,2.28
2018-12-15T12:07:05.698Z,2.27
2018-12-15T12:08:05.682Z,2.34
2018-12-15T12:09:05.872Z,2.33
2018-12-15T12:10:05.893Z,2.3
2018-12-15T12:11:05.346Z,2.31
2018-12-15T12:12:05.834Z,2.35
2018-12-15T12:13:05.557Z,2.31
2018-12-15T12:14:05.797Z,2.35
2018-12-15T12:15:05.766Z,2.31
2018-12-15T12:16:05.230Z,2.31
2018-12-15T12:17:05.463Z,2.38
2018-12-15T12:18:05.691Z,2.37
2018-12-15T12:19:05.677Z,2.38
2018-12-15T12:20:05.449Z,2.33
2018-12-15T12:21:05.626Z,2.34
2018-12-15T12:22:05.421Z,2.34
2018-12-15T12:23:05.598Z,2.37
2018-12-15T12:24:05.325Z,2.3
2018-12-15T12:25:05.733Z,2.35
2018-12-15T12:26:05.258Z,2.31
2018-12-15T12:27:05.247Z,2.34
2018-12-15T12:28:05.277Z,2.41
2018-12-15T12:29:05.189Z,2.48
2018-12-15T12:30:05.201Z,2.41
2018-12-15T12:31:05.138Z,2.44
2018-12-15T12:32:04.863Z,2.41
2018-12-15T12:33:05.100Z,2.55
2018-12-15T12:34:05.072Z,2.52
2018-12-15T12:35:05.306Z,2.52
2018-12-15T12:36:05.027Z,2.41
2018-12-15T12:37:04.750Z,2.4
2018-12-15T12:38:04.985Z,2.45
2018-12-15T12:39:04.969Z,2.45
2018-12-15T12:40:04.934Z,2.48
2018-12-15T12:41:04.912Z,2.48
2018-12-15T12:42:04.904Z,2.49
2018-12-15T12:43:05.118Z,2.48
2018-12-15T12:44:05.102Z,2.49
2018-12-15T12:45:04.822Z,2.58
2018-12-15T12:46:04.558Z,2.49
2018-12-15T12:47:04.525Z,2.46
2018-12-15T12:48:04.755Z,2.49
2018-12-15T12:49:04.481Z,2.59
2018-12-15T12:50:04.960Z,2.52
2018-12-15T12:51:04.687Z,2.45
2018-12-15T12:52:04.659Z,2.53
2018-12-15T12:53:04.910Z,2.44
2018-12-15T12:54:04.629Z,2.33
2018-12-15T12:55:04.841Z,2.34
2018-12-15T12:56:04.823Z,2.34
2018-12-15T12:57:04.837Z,2.46
2018-12-15T12:58:04.567Z,2.49
2018-12-15T12:59:04.558Z,2.45
2018-12-15T13:00:04.528Z,2.45
2018-12-15T13:01:04.787Z,2.49
2018-12-15T13:02:04.461Z,2.4
2018-12-15T13:03:04.908Z,2.45
2018-12-15T13:04:04.156Z,2.37
2018-12-15T13:05:04.369Z,2.51
2018-12-15T13:06:04.698Z,2.45
2018-12-15T13:07:04.844Z,2.44
2018-12-15T13:08:04.291Z,2.49
2018-12-15T13:09:04.533Z,2.46
2018-12-15T13:10:04.251Z,2.41
2018-12-15T13:11:04.487Z,2.4
2018-12-15T13:12:03.972Z,2.45
2018-12-15T13:13:04.461Z,2.37
2018-12-15T13:14:03.907Z,2.33
2018-12-15T13:15:04.402Z,2.4
2018-12-15T13:16:04.125Z,2.34
2018-12-15T13:17:04.092Z,2.38
2018-12-15T13:18:04.329Z,2.45
2018-12-15T13:19:03.799Z,2.4
